createdAt,value
2023-05-23T00:00:45.188Z,100119.77
2023-05-23T00:01:49.636Z,100119.20
2023-05-23T00:02:53.947Z,100118.07
2023-05-23T00:03:57.884Z,100123.29
2023-05-23T00:05:03.378Z,100129.36
2023-05-23T00:06:10.381Z,100123.43
2023-05-23T00:07:17.066Z,100116.94
2023-05-23T00:08:19.966Z,100120.89
2023-05-23T00:09:24.297Z,100128.51
2023-05-23T00:10:29.366Z,100121.48
2023-05-23T00:11:35.614Z,100117.39
2023-05-23T00:12:40.224Z,100110.91
2023-05-23T00:13:43.061Z,100108.34
2023-05-23T00:14:49.231Z,100105.52
2023-05-23T00:15:53.919Z,100101.84
2023-05-23T00:16:57.407Z,100102.72
2023-05-23T00:18:03.289Z,100101.59
2023-05-23T00:19:06.790Z,100102.86
2023-05-23T00:20:11.045Z,100095.10
2023-05-23T00:21:14.599Z,100097.50
2023-05-23T00:22:17.456Z,100089.31
2023-05-23T00:23:22.077Z,100093.83
2023-05-23T00:24:25.683Z,100089.31
2023-05-23T00:25:31.165Z,100095.81
2023-05-23T00:26:36.219Z,100091.30
2023-05-23T00:27:42.049Z,100097.92
2023-05-23T00:28:47.002Z,100087.91
2023-05-23T00:29:50.522Z,100088.75
2023-05-23T00:30:54.468Z,100084.84
2023-05-23T00:31:58.055Z,100084.55
2023-05-23T00:33:00.750Z,100089.74
2023-05-23T00:34:04.102Z,100082.41
2023-05-23T00:35:08.786Z,100084.70
2023-05-23T00:36:15.569Z,100092.45
2023-05-23T00:37:18.738Z,100081.73
2023-05-23T00:38:23.253Z,100091.18
2023-05-23T00:39:26.562Z,100088.50
2023-05-23T00:40:30.062Z,100082.14
2023-05-23T00:41:32.846Z,100080.87
2023-05-23T00:42:36.242Z,100095.83
2023-05-23T00:43:40.688Z,100084.13
2023-05-23T00:44:44.437Z,100083.42
2023-05-23T00:45:48.081Z,100081.31
2023-05-23T00:46:56.705Z,100086.80
2023-05-23T00:48:00.930Z,100084.41
2023-05-23T00:49:03.877Z,100082.99
2023-05-23T00:50:09.660Z,100078.80
2023-05-23T00:51:13.468Z,100083.56
2023-05-23T00:52:17.704Z,100081.87
2023-05-23T00:53:25.788Z,100080.63
2023-05-23T00:54:30.356Z,100077.52
2023-05-23T00:55:33.862Z,100081.05
2023-05-23T00:56:39.564Z,100078.09
2023-05-23T00:57:46.196Z,100079.92
2023-05-23T00:58:52.827Z,100078.09
2023-05-23T00:59:55.565Z,100073.01
2023-05-23T01:01:00.424Z,100074.13
2023-05-23T01:02:07.815Z,100073.99
2023-05-23T01:03:13.700Z,100074.41
2023-05-23T01:04:18.103Z,100075.53
2023-05-23T01:05:25.799Z,100067.37
2023-05-23T01:06:30.545Z,100069.19
2023-05-23T01:07:33.299Z,100071.16
2023-05-23T01:08:37.434Z,100064.42
2023-05-23T01:09:40.309Z,100059.89
2023-05-23T01:10:44.738Z,100066.11
2023-05-23T01:13:13.416Z,100065.27
2023-05-23T01:14:32.140Z,100063.45
2023-05-23T01:15:43.465Z,100070.77
2023-05-23T01:16:57.329Z,100065.81
2023-05-23T01:18:06.668Z,100071.28
2023-05-23T01:19:14.822Z,100075.88
2023-05-23T01:20:20.183Z,100076.19
2023-05-23T01:21:24.919Z,100067.59
2023-05-23T01:22:46.148Z,100075.24
2023-05-23T01:24:06.534Z,100065.08
2023-05-23T01:25:30.014Z,100069.72
2023-05-23T01:26:52.414Z,100070.84
2023-05-23T01:27:57.665Z,100066.47
2023-05-23T01:29:10.971Z,100075.92
2023-05-23T01:30:17.200Z,100069.28
2023-05-23T01:31:23.748Z,100053.16
2023-05-23T01:32:31.115Z,100060.27
2023-05-23T01:33:35.833Z,100067.18
2023-05-23T01:34:40.609Z,100054.67
2023-05-23T01:35:45.798Z,100053.83
2023-05-23T01:36:57.340Z,100050.87
2023-05-23T01:38:00.831Z,100053.55
2023-05-23T01:39:04.143Z,100050.61
2023-05-23T01:40:07.384Z,100065.69
2023-05-23T01:41:12.199Z,100059.19
2023-05-23T01:42:17.689Z,100052.30
2023-05-23T01:43:20.980Z,100047.09
2023-05-23T01:44:24.485Z,100059.73
2023-05-23T01:45:28.885Z,100053.66
2023-05-23T01:46:34.104Z,100054.34
2023-05-23T01:47:37.834Z,100054.78
2023-05-23T01:48:41.743Z,100057.45
2023-05-23T01:49:45.770Z,100053.08
2023-05-23T01:50:49.120Z,100055.32
2023-05-23T01:51:53.669Z,100054.20
2023-05-23T01:52:57.849Z,100049.42
2023-05-23T01:54:03.673Z,100055.59
2023-05-23T01:55:10.575Z,100050.23
2023-05-23T01:56:15.055Z,100049.83
2023-05-23T01:57:17.715Z,100053.48
2023-05-23T01:58:21.952Z,100058.00
2023-05-23T01:59:25.697Z,100056.74
2023-05-23T02:00:31.574Z,100057.02
2023-05-23T02:01:35.127Z,100052.10
2023-05-23T02:02:40.401Z,100055.77
2023-05-23T02:03:44.073Z,100063.79
2023-05-23T02:04:47.865Z,100065.48
2023-05-23T02:05:51.301Z,100056.88
2023-05-23T02:06:55.102Z,100062.53
2023-05-23T02:07:57.472Z,100063.25
2023-05-23T02:09:02.227Z,100059.62
2023-05-23T02:10:09.721Z,100041.84
2023-05-23T02:11:12.893Z,100053.80
2023-05-23T02:13:20.113Z,100044.78
2023-05-23T02:14:24.762Z,100053.09
2023-05-23T02:15:28.288Z,100043.23
2023-05-23T02:16:35.592Z,100047.87
2023-05-23T02:17:43.335Z,100049.42
2023-05-23T02:18:47.490Z,100044.48
2023-05-23T02:19:54.409Z,100046.00
2023-05-23T02:20:58.847Z,100044.03
2023-05-23T02:22:02.372Z,100048.98
2023-05-23T02:23:06.007Z,100040.11
2023-05-23T02:24:09.290Z,100042.52
2023-05-23T02:25:14.124Z,100045.19
2023-05-23T02:26:17.527Z,100042.66
2023-05-23T02:27:20.557Z,100029.00
2023-05-23T02:28:24.535Z,100042.52
2023-05-23T02:29:27.250Z,100045.77
2023-05-23T02:30:32.485Z,100042.66
2023-05-23T02:31:39.105Z,100046.17
2023-05-23T02:32:42.646Z,100034.22
2023-05-23T02:33:47.390Z,100040.14
2023-05-23T02:34:54.548Z,100034.08
2023-05-23T02:35:58.784Z,100037.36
2023-05-23T02:37:02.219Z,100034.69
2023-05-23T02:38:06.265Z,100033.81
2023-05-23T02:39:09.764Z,100040.96
2023-05-23T02:40:12.284Z,100038.92
2023-05-23T02:41:16.945Z,100030.61
2023-05-23T02:42:22.143Z,100035.22
2023-05-23T02:43:25.539Z,100034.20
2023-05-23T02:44:29.142Z,100031.80
2023-05-23T02:45:35.444Z,100031.80
2023-05-23T02:46:38.964Z,100037.27
2023-05-23T02:47:44.140Z,100030.50
2023-05-23T02:48:47.886Z,100039.00
2023-05-23T02:49:54.424Z,100034.20
2023-05-23T02:50:57.938Z,100040.13
2023-05-23T02:52:00.757Z,100044.64
2023-05-23T02:53:07.747Z,100035.92
2023-05-23T02:54:10.892Z,100032.68
2023-05-23T02:55:17.845Z,100035.50
2023-05-23T02:56:24.354Z,100030.28
2023-05-23T02:57:27.263Z,100037.87
2023-05-23T02:58:31.082Z,100032.56
2023-05-23T02:59:37.851Z,100033.94
2023-05-23T03:00:44.946Z,100034.38
2023-05-23T03:01:48.422Z,100035.38
2023-05-23T03:02:52.096Z,100029.32
2023-05-23T03:03:57.388Z,100040.23
2023-05-23T03:05:00.891Z,100037.30
2023-05-23T03:06:06.952Z,100030.95
2023-05-23T03:07:24.481Z,100036.69
2023-05-23T03:08:18.184Z,100035.39
2023-05-23T03:09:21.588Z,100034.98
2023-05-23T03:10:24.359Z,100032.25
2023-05-23T03:11:28.808Z,100022.78
2023-05-23T03:12:35.258Z,100029.16
2023-05-23T03:13:38.954Z,100035.02
2023-05-23T03:14:41.930Z,100023.02
2023-05-23T03:15:45.856Z,100025.89
2023-05-23T03:16:49.488Z,100021.91
2023-05-23T03:17:52.114Z,100028.81
2023-05-23T03:18:55.872Z,100028.86
2023-05-23T03:19:58.841Z,100022.80
2023-05-23T03:21:01.191Z,100023.80
2023-05-23T03:22:05.527Z,100021.91
2023-05-23T03:23:08.824Z,100018.64
2023-05-23T03:24:12.641Z,100023.28
2023-05-23T03:25:17.763Z,100022.43
2023-05-23T03:26:22.819Z,100022.37
2023-05-23T03:27:26.288Z,100018.91
2023-05-23T03:28:29.895Z,100025.11
2023-05-23T03:29:33.821Z,100022.22
2023-05-23T03:30:37.328Z,100027.03
2023-05-23T03:31:43.743Z,100022.77
2023-05-23T03:32:48.057Z,100029.98
2023-05-23T03:33:54.754Z,100029.21
2023-05-23T03:34:57.728Z,100028.62
2023-05-23T03:36:00.129Z,100025.79
2023-05-23T03:37:03.159Z,100037.15
2023-05-23T03:38:06.668Z,100029.64
2023-05-23T03:39:10.587Z,100027.41
2023-05-23T03:40:13.153Z,100025.97
2023-05-23T03:41:16.660Z,100028.32
2023-05-23T03:42:20.893Z,100022.91
2023-05-23T03:43:24.403Z,100018.38
2023-05-23T03:44:28.007Z,100019.22
2023-05-23T03:45:32.358Z,100023.96
2023-05-23T03:46:39.749Z,100026.83
2023-05-23T03:47:44.743Z,100026.92
2023-05-23T03:48:48.714Z,100028.52
2023-05-23T03:49:51.802Z,100035.12
2023-05-23T03:50:56.978Z,100035.05
2023-05-23T03:52:04.341Z,100029.48
2023-05-23T03:53:08.583Z,100037.02
2023-05-23T03:54:14.620Z,100031.41
2023-05-23T03:55:18.098Z,100030.66
2023-05-23T03:56:22.029Z,100031.59
2023-05-23T03:57:24.488Z,100026.44
2023-05-23T03:58:29.596Z,100031.85
2023-05-23T03:59:39.784Z,100028.40
2023-05-23T04:00:48.059Z,100026.73
2023-05-23T04:01:55.889Z,100032.45
2023-05-23T04:02:59.227Z,100027.92
2023-05-23T04:04:02.663Z,100034.68
2023-05-23T04:05:09.918Z,100035.42
2023-05-23T04:06:14.703Z,100030.95
2023-05-23T04:07:21.407Z,100034.58
2023-05-23T04:08:27.202Z,100036.96
2023-05-23T04:09:30.588Z,100026.80
2023-05-23T04:10:34.221Z,100028.20
2023-05-23T04:11:37.827Z,100035.98
2023-05-23T04:12:44.257Z,100037.27
2023-05-23T04:13:50.589Z,100034.17
2023-05-23T04:14:53.354Z,100031.07
2023-05-23T04:15:58.561Z,100030.03
2023-05-23T04:17:02.378Z,100033.25
2023-05-23T04:18:08.083Z,100035.05
2023-05-23T04:19:13.289Z,100040.00
2023-05-23T04:20:20.201Z,100037.02
2023-05-23T04:21:23.786Z,100033.11
2023-05-23T04:22:29.170Z,100035.91
2023-05-23T04:23:32.658Z,100038.34
2023-05-23T04:24:36.126Z,100049.84
2023-05-23T04:25:39.199Z,100051.19
2023-05-23T04:26:44.863Z,100055.89
2023-05-23T04:27:47.836Z,100071.51
2023-05-23T04:28:53.552Z,100078.77
2023-05-23T04:30:00.965Z,100078.23
2023-05-23T04:31:05.876Z,100079.73
2023-05-23T04:32:11.683Z,100073.63
2023-05-23T04:33:16.005Z,100068.66
2023-05-23T04:34:25.071Z,100068.24
2023-05-23T04:35:29.115Z,100058.06
2023-05-23T04:36:33.033Z,100066.56
2023-05-23T04:37:38.404Z,100058.75
2023-05-23T04:38:42.424Z,100049.92
2023-05-23T04:39:48.839Z,100053.50
2023-05-23T04:41:00.223Z,100053.69
2023-05-23T04:42:23.818Z,100056.21
2023-05-23T04:43:32.909Z,100055.67
2023-05-23T04:44:41.950Z,100054.86
2023-05-23T04:45:50.500Z,100052.66
2023-05-23T04:46:59.530Z,100046.94
2023-05-23T04:48:05.211Z,100051.48
2023-05-23T04:49:23.648Z,100057.37
2023-05-23T04:50:28.286Z,100045.26
2023-05-23T04:51:31.537Z,100046.38
2023-05-23T04:52:38.645Z,100050.08
2023-05-23T04:53:41.599Z,100050.61
2023-05-23T04:54:51.532Z,100047.19
2023-05-23T04:55:54.884Z,100045.88
2023-05-23T04:56:58.207Z,100044.36
2023-05-23T04:58:02.959Z,100051.68
2023-05-23T04:59:06.468Z,100054.28
2023-05-23T05:00:11.097Z,100057.47
2023-05-23T05:01:14.755Z,100051.98
2023-05-23T05:02:18.394Z,100056.53
2023-05-23T05:03:21.207Z,100060.97
2023-05-23T05:04:24.164Z,100057.60
2023-05-23T05:05:28.851Z,100064.63
2023-05-23T05:06:33.513Z,100070.76
2023-05-23T05:07:37.111Z,100073.66
2023-05-23T05:08:41.559Z,100071.05
2023-05-23T05:09:45.168Z,100072.58
2023-05-23T05:10:48.872Z,100073.52
2023-05-23T05:11:54.104Z,100069.00
2023-05-23T05:12:58.606Z,100068.79
2023-05-23T05:14:03.880Z,100075.86
2023-05-23T05:15:08.301Z,100073.25
2023-05-23T05:16:13.278Z,100081.88
2023-05-23T05:17:21.101Z,100078.48
2023-05-23T05:18:32.254Z,100083.85
2023-05-23T05:19:36.021Z,100085.23
2023-05-23T05:20:40.255Z,100082.67
2023-05-23T05:21:44.922Z,100081.13
2023-05-23T05:22:48.255Z,100082.80
2023-05-23T05:23:52.459Z,100079.02
2023-05-23T05:25:00.273Z,100086.86
2023-05-23T05:26:07.407Z,100077.78
2023-05-23T05:27:12.606Z,100082.84
2023-05-23T05:28:15.267Z,100089.59
2023-05-23T05:29:23.508Z,100094.47
2023-05-23T05:30:26.961Z,100093.00
2023-05-23T05:31:34.563Z,100092.54
2023-05-23T05:32:41.317Z,100097.37
2023-05-23T05:33:49.257Z,100104.73
2023-05-23T05:34:52.683Z,100106.03
2023-05-23T05:35:58.366Z,100112.08
2023-05-23T05:37:02.436Z,100116.16
2023-05-23T05:38:05.493Z,100125.31
2023-05-23T05:39:09.944Z,100112.73
2023-05-23T05:40:15.520Z,100115.69
2023-05-23T05:41:19.757Z,100126.05
2023-05-23T05:42:24.968Z,100124.84
2023-05-23T05:43:28.544Z,100121.21
2023-05-23T05:44:32.691Z,100116.98
2023-05-23T05:45:37.832Z,100130.28
2023-05-23T05:46:41.640Z,100132.80
2023-05-23T05:47:46.789Z,100135.41
2023-05-23T05:48:50.789Z,100139.73
2023-05-23T05:49:55.845Z,100132.23
2023-05-23T05:51:01.756Z,100141.89
2023-05-23T05:52:09.120Z,100139.33
2023-05-23T05:53:13.723Z,100138.30
2023-05-23T05:54:19.107Z,100143.55
2023-05-23T05:55:23.922Z,100137.41
2023-05-23T05:56:31.191Z,100134.76
2023-05-23T05:57:33.931Z,100134.63
2023-05-23T05:58:38.510Z,100130.36
2023-05-23T05:59:43.897Z,100128.44
2023-05-23T06:00:49.697Z,100136.31
2023-05-23T06:01:53.724Z,100139.27
2023-05-23T06:03:00.552Z,100139.27
2023-05-23T06:04:07.889Z,100148.84
2023-05-23T06:05:17.298Z,100140.71
2023-05-23T06:06:22.994Z,100138.87
2023-05-23T06:07:27.324Z,100143.62
2023-05-23T06:08:30.945Z,100144.35
2023-05-23T06:09:34.327Z,100141.19
2023-05-23T06:10:40.102Z,100141.77
2023-05-23T06:11:44.705Z,100135.69
2023-05-23T06:12:49.366Z,100132.35
2023-05-23T06:13:55.990Z,100140.75
2023-05-23T06:15:01.601Z,100133.85
2023-05-23T06:16:07.630Z,100130.79
2023-05-23T06:17:11.416Z,100130.42
2023-05-23T06:18:15.099Z,100126.75
2023-05-23T06:19:21.668Z,100129.91
2023-05-23T06:20:28.441Z,100124.52
2023-05-23T06:21:33.072Z,100128.63
2023-05-23T06:22:37.946Z,100132.08
2023-05-23T06:23:42.205Z,100130.48
2023-05-23T06:24:46.510Z,100127.38
2023-05-23T06:25:50.225Z,100130.75
2023-05-23T06:26:53.710Z,100138.09
2023-05-23T06:27:57.165Z,100134.31
2023-05-23T06:29:02.208Z,100131.71
2023-05-23T06:30:06.313Z,100128.72
2023-05-23T06:31:12.116Z,100126.45
2023-05-23T06:32:15.419Z,100122.12
2023-05-23T06:33:20.185Z,100128.89
2023-05-23T06:34:25.564Z,100125.59
2023-05-23T06:35:28.650Z,100123.69
2023-05-23T06:36:32.484Z,100122.02
2023-05-23T06:37:35.992Z,100116.88
2023-05-23T06:38:38.773Z,100129.84
2023-05-23T06:39:42.138Z,100128.22
2023-05-23T06:40:44.828Z,100117.74
2023-05-23T06:41:48.787Z,100120.34
2023-05-23T06:42:55.480Z,100113.82
2023-05-23T06:44:03.408Z,100115.56
2023-05-23T06:45:08.344Z,100114.73
2023-05-23T06:46:11.051Z,100113.28
2023-05-23T06:47:14.623Z,100109.34
2023-05-23T06:48:20.458Z,100115.50
2023-05-23T06:49:25.833Z,100117.70
2023-05-23T06:50:30.985Z,100110.70
2023-05-23T06:51:36.521Z,100110.08
2023-05-23T06:52:46.466Z,100107.09
2023-05-23T06:53:49.651Z,100108.73
2023-05-23T06:54:53.766Z,100124.77
2023-05-23T06:55:57.304Z,100118.97
2023-05-23T06:57:01.876Z,100112.06
2023-05-23T06:58:05.240Z,100114.61
2023-05-23T06:59:09.280Z,100114.06
2023-05-23T07:00:16.622Z,100113.52
2023-05-23T07:01:25.371Z,100112.17
2023-05-23T07:02:30.363Z,100116.05
2023-05-23T07:03:34.347Z,100113.00
2023-05-23T07:04:39.565Z,100106.90
2023-05-23T07:05:45.110Z,100115.45
2023-05-23T07:06:49.039Z,100107.34
2023-05-23T07:07:52.646Z,100108.52
2023-05-23T07:08:57.421Z,100112.72
2023-05-23T07:10:03.306Z,100103.59
2023-05-23T07:11:09.236Z,100102.22
2023-05-23T07:12:18.682Z,100103.88
2023-05-23T07:13:24.586Z,100101.67
2023-05-23T07:14:30.547Z,100105.55
2023-05-23T07:15:34.106Z,100102.64
2023-05-23T07:16:43.635Z,100097.20
2023-05-23T07:17:48.347Z,100101.75
2023-05-23T07:18:51.725Z,100102.59
2023-05-23T07:19:58.209Z,100101.81
2023-05-23T07:21:02.071Z,100096.34
2023-05-23T07:22:07.804Z,100108.34
2023-05-23T07:23:11.705Z,100106.02
2023-05-23T07:24:21.658Z,100100.57
2023-05-23T07:25:24.442Z,100110.51
2023-05-23T07:26:32.020Z,100109.95
2023-05-23T07:27:36.161Z,100096.97
2023-05-23T07:28:39.303Z,100095.04
2023-05-23T07:29:45.205Z,100100.29
2023-05-23T07:30:49.582Z,100095.05
2023-05-23T07:31:53.312Z,100088.90
2023-05-23T07:34:11.394Z,100087.75
2023-05-23T07:35:17.489Z,100094.40
2023-05-23T07:36:23.308Z,100081.39
2023-05-23T07:37:28.184Z,100074.89
2023-05-23T07:38:35.844Z,100084.86
2023-05-23T07:39:39.280Z,100072.13
2023-05-23T07:40:43.421Z,100079.14
2023-05-23T07:41:47.528Z,100081.14
2023-05-23T07:42:49.885Z,100081.08
2023-05-23T07:43:53.485Z,100074.56
2023-05-23T07:44:56.489Z,100073.13
2023-05-23T07:45:59.682Z,100070.14
2023-05-23T07:47:03.124Z,100076.22
2023-05-23T07:48:08.901Z,100074.72
2023-05-23T07:49:17.517Z,100072.38
2023-05-23T07:50:21.412Z,100072.18
2023-05-23T07:51:26.375Z,100075.13
2023-05-23T07:52:35.964Z,100070.22
2023-05-23T07:53:41.041Z,100058.51
2023-05-23T07:54:47.566Z,100063.13
2023-05-23T07:55:51.104Z,100066.27
2023-05-23T07:56:54.574Z,100055.34
2023-05-23T07:57:59.001Z,100055.64
2023-05-23T07:59:03.760Z,100057.17
2023-05-23T08:00:06.814Z,100052.11
2023-05-23T08:01:13.843Z,100052.44
2023-05-23T08:02:34.246Z,100050.67
2023-05-23T08:03:38.771Z,100050.44
2023-05-23T08:04:47.034Z,100046.79
2023-05-23T08:05:51.118Z,100050.81
2023-05-23T08:08:02.764Z,100051.82
2023-05-23T08:09:09.571Z,100047.45
2023-05-23T08:10:14.762Z,100047.77
2023-05-23T08:11:18.555Z,100046.20
2023-05-23T08:12:25.092Z,100036.78
2023-05-23T08:13:32.129Z,100039.97
2023-05-23T08:14:52.077Z,100039.06
2023-05-23T08:16:04.091Z,100046.39
2023-05-23T08:17:08.068Z,100035.77
2023-05-23T08:18:12.925Z,100036.76
2023-05-23T08:19:19.593Z,100033.84
2023-05-23T08:20:23.465Z,100032.55
2023-05-23T08:21:27.174Z,100034.00
2023-05-23T08:22:29.642Z,100031.02
2023-05-23T08:23:34.923Z,100029.67
2023-05-23T08:24:38.442Z,100027.17
2023-05-23T08:25:42.176Z,100034.36
2023-05-23T08:26:45.789Z,100028.56
2023-05-23T08:27:49.827Z,100027.49
2023-05-23T08:29:05.505Z,100029.02
2023-05-23T08:30:10.047Z,100024.67
2023-05-23T08:31:15.065Z,100021.00
2023-05-23T08:32:22.073Z,100011.98
2023-05-23T08:33:30.850Z,100013.55
2023-05-23T08:34:36.572Z,100015.22
2023-05-23T08:35:40.121Z,100010.36
2023-05-23T08:36:45.621Z,100001.38
2023-05-23T08:37:52.886Z,100015.12
2023-05-23T08:38:57.642Z,100006.37
2023-05-23T08:40:10.855Z,100013.59
2023-05-23T08:41:20.852Z,100009.55
2023-05-23T08:42:27.664Z,100006.55
2023-05-23T08:43:32.782Z,100003.65
2023-05-23T08:44:37.600Z,100001.64
2023-05-23T08:45:42.694Z,100008.95
2023-05-23T08:46:47.031Z,100004.18
2023-05-23T08:47:53.268Z,99993.89
2023-05-23T08:48:59.458Z,99996.62
2023-05-23T08:50:04.914Z,99994.97
2023-05-23T08:51:09.596Z,99996.42
2023-05-23T08:52:14.986Z,99996.30
2023-05-23T08:53:20.702Z,99997.38
2023-05-23T08:54:25.855Z,99994.52
2023-05-23T08:55:30.728Z,100002.05
2023-05-23T08:56:36.073Z,99993.34
2023-05-23T08:57:41.989Z,99981.23
2023-05-23T08:58:49.968Z,99978.73
2023-05-23T09:00:00.123Z,99985.02
2023-05-23T09:01:03.473Z,99986.94
2023-05-23T09:02:08.911Z,99979.83
2023-05-23T09:03:12.604Z,99979.14
2023-05-23T09:04:30.937Z,99974.72
2023-05-23T09:05:36.670Z,99969.47
2023-05-23T09:06:40.442Z,99968.50
2023-05-23T09:07:45.176Z,99982.94
2023-05-23T09:08:48.754Z,99980.17
2023-05-23T09:09:54.126Z,99984.48
2023-05-23T09:11:00.628Z,99975.66
2023-05-23T09:12:04.256Z,99973.45
2023-05-23T09:13:10.874Z,99970.91
2023-05-23T09:14:15.420Z,99969.81
2023-05-23T09:15:22.031Z,99974.62
2023-05-23T09:16:28.793Z,99973.05
2023-05-23T09:17:34.117Z,99977.55
2023-05-23T09:18:38.324Z,99970.73
2023-05-23T09:19:43.701Z,99974.70
2023-05-23T09:20:52.333Z,99969.08
2023-05-23T09:21:56.269Z,99964.77
2023-05-23T09:23:09.802Z,99962.31
2023-05-23T09:24:14.232Z,99966.30
2023-05-23T09:25:18.470Z,99964.16
2023-05-23T09:26:22.702Z,99956.55
2023-05-23T09:27:27.803Z,99955.54
2023-05-23T09:28:30.766Z,99960.06
2023-05-23T09:29:36.361Z,99954.75
2023-05-23T09:30:41.218Z,99958.27
2023-05-23T09:31:46.488Z,99944.04
2023-05-23T09:33:05.379Z,99950.05
2023-05-23T09:34:10.433Z,99950.80
2023-05-23T09:35:17.304Z,99943.95
2023-05-23T09:36:22.025Z,99949.28
2023-05-23T09:37:39.901Z,99946.78
2023-05-23T09:38:52.036Z,99941.38
2023-05-23T09:39:55.727Z,99940.95
2023-05-23T09:40:58.933Z,99934.52
2023-05-23T09:42:02.543Z,99948.27
2023-05-23T09:43:05.997Z,99941.61
2023-05-23T09:44:10.060Z,99938.70
2023-05-23T09:45:16.319Z,99936.76
2023-05-23T09:46:21.217Z,99935.81
2023-05-23T09:47:24.629Z,99940.67
2023-05-23T09:48:33.394Z,99932.86
2023-05-23T09:49:38.666Z,99931.60
2023-05-23T09:50:42.949Z,99928.98
2023-05-23T09:51:48.131Z,99936.48
2023-05-23T09:52:51.784Z,99927.44
2023-05-23T09:53:57.254Z,99924.77
2023-05-23T09:55:01.304Z,99925.87
2023-05-23T09:56:05.235Z,99926.37
2023-05-23T09:57:12.033Z,99933.53
2023-05-23T09:58:15.374Z,99929.31
2023-05-23T09:59:20.225Z,99933.56
2023-05-23T10:00:26.339Z,99931.59
2023-05-23T10:01:31.084Z,99929.39
2023-05-23T10:02:41.605Z,99928.97
2023-05-23T10:03:57.966Z,99939.56
2023-05-23T10:05:40.837Z,99933.81
2023-05-23T10:06:48.377Z,99932.30
2023-05-23T10:07:51.881Z,99937.91
2023-05-23T10:09:00.868Z,99938.03
2023-05-23T10:10:06.153Z,99930.70
2023-05-23T10:11:13.976Z,99927.32
2023-05-23T10:12:34.882Z,99927.57
2023-05-23T10:13:49.254Z,99932.05
2023-05-23T10:14:56.310Z,99928.34
2023-05-23T10:16:01.606Z,99916.70
2023-05-23T10:17:06.824Z,99917.46
2023-05-23T10:18:13.326Z,99917.01
2023-05-23T10:19:31.887Z,99916.62
2023-05-23T10:20:37.015Z,99910.80
2023-05-23T10:21:46.815Z,99913.52
2023-05-23T10:22:50.607Z,99915.17
2023-05-23T10:23:53.060Z,99909.08
2023-05-23T10:25:00.653Z,99917.65
2023-05-23T10:26:07.425Z,99919.63
2023-05-23T10:27:11.002Z,99917.25
2023-05-23T10:28:13.993Z,99923.80
2023-05-23T10:29:17.587Z,99912.91
2023-05-23T10:30:22.966Z,99914.96
2023-05-23T10:31:27.688Z,99915.56
2023-05-23T10:32:32.157Z,99913.98
2023-05-23T10:33:39.229Z,99908.29
2023-05-23T10:34:45.257Z,99909.36
2023-05-23T10:35:51.724Z,99910.85
2023-05-23T10:36:59.580Z,99915.06
2023-05-23T10:38:20.434Z,99924.03
2023-05-23T10:39:41.046Z,99909.39
2023-05-23T10:40:50.818Z,99903.81
2023-05-23T10:41:55.922Z,99900.31
2023-05-23T10:43:06.733Z,99907.81
2023-05-23T10:44:12.096Z,99896.27
2023-05-23T10:45:16.950Z,99904.41
2023-05-23T10:46:22.720Z,99904.77
2023-05-23T10:47:28.199Z,99905.09
2023-05-23T10:48:33.410Z,99902.52
2023-05-23T10:51:06.346Z,99905.41
2023-05-23T10:52:11.934Z,99906.30
2023-05-23T10:53:17.196Z,99893.87
2023-05-23T10:54:23.294Z,99897.22
2023-05-23T10:55:28.674Z,99897.72
2023-05-23T10:56:34.520Z,99894.59
2023-05-23T10:57:38.432Z,99897.27
2023-05-23T10:58:41.309Z,99900.78
2023-05-23T10:59:46.168Z,99903.27
2023-05-23T11:00:55.220Z,99895.98
2023-05-23T11:02:01.740Z,99896.27
2023-05-23T11:03:09.753Z,99894.00
2023-05-23T11:04:13.118Z,99900.30
2023-05-23T11:05:20.115Z,99899.30
2023-05-23T11:06:37.184Z,99902.37
2023-05-23T11:07:40.479Z,99901.42
2023-05-23T11:08:48.755Z,99894.32
2023-05-23T11:10:02.306Z,99902.09
2023-05-23T11:11:05.671Z,99907.54
2023-05-23T11:12:09.222Z,99898.73
2023-05-23T11:13:19.822Z,99901.23
2023-05-23T11:14:34.102Z,99904.63
2023-05-23T11:15:43.655Z,99888.45
2023-05-23T11:16:49.940Z,99885.54
2023-05-23T11:17:56.320Z,99882.37
2023-05-23T11:19:21.479Z,99891.47
2023-05-23T11:20:28.110Z,99889.56
2023-05-23T11:21:34.837Z,99887.44
2023-05-23T11:22:39.375Z,99888.11
2023-05-23T11:23:43.286Z,99888.97
2023-05-23T11:24:52.334Z,99900.31
2023-05-23T11:25:57.912Z,99892.64
2023-05-23T11:27:02.381Z,99893.08
2023-05-23T11:28:06.208Z,99890.23
2023-05-23T11:29:12.507Z,99888.02
2023-05-23T11:30:18.174Z,99877.54
2023-05-23T11:31:21.167Z,99879.20
2023-05-23T11:32:26.763Z,99879.15
2023-05-23T11:33:31.121Z,99878.16
2023-05-23T11:34:34.148Z,99878.09
2023-05-23T11:35:37.622Z,99875.70
2023-05-23T11:36:41.637Z,99878.58
2023-05-23T11:37:44.837Z,99887.20
2023-05-23T11:38:49.896Z,99880.34
2023-05-23T11:39:53.305Z,99878.37
2023-05-23T11:40:57.228Z,99878.60
2023-05-23T11:42:03.451Z,99878.09
2023-05-23T11:43:07.900Z,99877.03
2023-05-23T11:44:15.061Z,99871.22
2023-05-23T11:45:19.648Z,99878.42
2023-05-23T11:46:24.270Z,99871.58
2023-05-23T11:47:31.187Z,99873.13
2023-05-23T11:48:34.603Z,99872.88
2023-05-23T11:49:41.872Z,99871.55
2023-05-23T11:50:46.120Z,99877.48
2023-05-23T11:51:52.902Z,99867.75
2023-05-23T11:52:55.432Z,99872.37
2023-05-23T11:54:01.119Z,99869.05
2023-05-23T11:55:04.934Z,99871.54
2023-05-23T11:56:09.172Z,99879.40
2023-05-23T11:57:15.231Z,99870.25
2023-05-23T11:58:22.544Z,99883.80
2023-05-23T11:59:27.104Z,99871.71
2023-05-23T12:00:31.134Z,99869.78
2023-05-23T12:01:35.776Z,99870.73
2023-05-23T12:02:40.701Z,99876.47
2023-05-23T12:03:53.132Z,99873.95
2023-05-23T12:04:57.325Z,99879.33
2023-05-23T12:06:02.134Z,99874.04
2023-05-23T12:07:07.707Z,99876.97
2023-05-23T12:08:15.814Z,99882.49
2023-05-23T12:09:23.054Z,99874.58
2023-05-23T12:10:28.572Z,99876.06
2023-05-23T12:11:33.741Z,99870.05
2023-05-23T12:12:38.413Z,99872.78
2023-05-23T12:13:44.110Z,99879.93
2023-05-23T12:14:48.151Z,99875.72
2023-05-23T12:15:53.771Z,99868.58
2023-05-23T12:16:59.864Z,99880.81
2023-05-23T12:18:07.205Z,99875.86
2023-05-23T12:19:11.593Z,99877.95
2023-05-23T12:20:14.765Z,99871.23
2023-05-23T12:21:18.027Z,99875.58
2023-05-23T12:22:24.530Z,99870.81
2023-05-23T12:23:28.906Z,99869.39
2023-05-23T12:24:32.414Z,99860.09
2023-05-23T12:25:44.866Z,99864.33
2023-05-23T12:26:49.242Z,99870.47
2023-05-23T12:27:56.520Z,99864.78
2023-05-23T12:29:04.230Z,99857.88
2023-05-23T12:30:18.352Z,99863.86
2023-05-23T12:31:22.905Z,99863.11
2023-05-23T12:32:27.842Z,99858.84
2023-05-23T12:33:31.894Z,99861.44
2023-05-23T12:34:35.397Z,99856.95
2023-05-23T12:35:42.468Z,99854.66
2023-05-23T12:36:49.401Z,99853.47
2023-05-23T12:37:52.098Z,99853.00
2023-05-23T12:38:57.977Z,99855.17
2023-05-23T12:40:17.023Z,99859.91
2023-05-23T12:41:21.281Z,99851.97
2023-05-23T12:42:25.001Z,99849.33